sensor_id;sensor_type;location;lat;lon;timestamp;P1;durP1;ratioP1;P2;durP2;ratioP2
80963;SDS011;70425;59.322;13.486;2023-08-21T00:00:36;30.00;;;8.77;;
80963;SDS011;70425;59.322;13.486;2023-08-21T00:40:05;19.37;;;7.53;;
80963;SDS011;70425;59.322;13.486;2023-08-21T00:57:28;24.80;;;8.43;;
80963;SDS011;70425;59.322;13.486;2023-08-21T01:00:20;25.37;;;8.40;;
80963;SDS011;70425;59.322;13.486;2023-08-21T01:08:50;23.17;;;9.37;;
80963;SDS011;70425;59.322;13.486;2023-08-21T01:11:45;32.77;;;10.53;;
80963;SDS011;70425;59.322;13.486;2023-08-21T01:14:27;24.43;;;9.47;;
80963;SDS011;70425;59.322;13.486;2023-08-21T01:17:18;24.77;;;10.10;;
80963;SDS011;70425;59.322;13.486;2023-08-21T01:20:08;24.10;;;9.80;;
80963;SDS011;70425;59.322;13.486;2023-08-21T01:23:02;18.43;;;9.33;;
80963;SDS011;70425;59.322;13.486;2023-08-21T01:25:52;23.90;;;10.90;;
80963;SDS011;70425;59.322;13.486;2023-08-21T01:28:41;29.97;;;10.53;;
80963;SDS011;70425;59.322;13.486;2023-08-21T01:31:30;23.07;;;10.33;;
80963;SDS011;70425;59.322;13.486;2023-08-21T01:34:22;25.17;;;10.83;;
80963;SDS011;70425;59.322;13.486;2023-08-21T01:37:12;32.63;;;11.80;;
80963;SDS011;70425;59.322;13.486;2023-08-21T01:40:01;31.43;;;11.03;;
80963;SDS011;70425;59.322;13.486;2023-08-21T01:42:50;31.80;;;12.83;;
80963;SDS011;70425;59.322;13.486;2023-08-21T01:46:06;32.87;;;12.57;;
80963;SDS011;70425;59.322;13.486;2023-08-21T01:48:55;30.20;;;12.67;;
80963;SDS011;70425;59.322;13.486;2023-08-21T01:51:44;36.80;;;12.53;;
80963;SDS011;70425;59.322;13.486;2023-08-21T01:54:32;29.20;;;11.73;;
80963;SDS011;70425;59.322;13.486;2023-08-21T01:57:22;25.80;;;11.30;;
80963;SDS011;70425;59.322;13.486;2023-08-21T02:01:14;35.93;;;11.93;;
80963;SDS011;70425;59.322;13.486;2023-08-21T02:04:03;31.67;;;11.97;;
80963;SDS011;70425;59.322;13.486;2023-08-21T02:06:58;32.57;;;12.10;;
80963;SDS011;70425;59.322;13.486;2023-08-21T02:09:47;27.67;;;11.27;;
80963;SDS011;70425;59.322;13.486;2023-08-21T02:12:35;27.00;;;11.83;;
80963;SDS011;70425;59.322;13.486;2023-08-21T02:19:05;31.63;;;11.70;;
80963;SDS011;70425;59.322;13.486;2023-08-21T02:21:54;26.70;;;11.47;;
80963;SDS011;70425;59.322;13.486;2023-08-21T02:24:42;28.53;;;10.27;;
80963;SDS011;70425;59.322;13.486;2023-08-21T02:27:32;26.47;;;10.53;;
80963;SDS011;70425;59.322;13.486;2023-08-21T02:30:24;31.90;;;9.53;;
80963;SDS011;70425;59.322;13.486;2023-08-21T02:33:13;28.40;;;9.73;;
80963;SDS011;70425;59.322;13.486;2023-08-21T02:49:41;22.33;;;8.27;;
80963;SDS011;70425;59.322;13.486;2023-08-21T02:52:30;16.37;;;8.33;;
80963;SDS011;70425;59.322;13.486;2023-08-21T02:55:46;25.63;;;8.47;;
80963;SDS011;70425;59.322;13.486;2023-08-21T02:58:35;20.77;;;8.30;;
80963;SDS011;70425;59.322;13.486;2023-08-21T03:01:23;20.70;;;7.57;;
80963;SDS011;70425;59.322;13.486;2023-08-21T03:04:12;19.93;;;8.27;;
80963;SDS011;70425;59.322;13.486;2023-08-21T03:07:01;26.07;;;7.80;;
80963;SDS011;70425;59.322;13.486;2023-08-21T03:09:50;21.03;;;8.33;;
80963;SDS011;70425;59.322;13.486;2023-08-21T03:12:39;23.60;;;7.77;;
80963;SDS011;70425;59.322;13.486;2023-08-21T03:15:27;16.20;;;6.70;;
80963;SDS011;70425;59.322;13.486;2023-08-21T03:20:55;15.40;;;6.30;;
80963;SDS011;70425;59.322;13.486;2023-08-21T03:23:46;14.47;;;5.83;;
80963;SDS011;70425;59.322;13.486;2023-08-21T03:26:34;16.43;;;6.23;;
80963;SDS011;70425;59.322;13.486;2023-08-21T03:29:23;12.67;;;5.40;;
80963;SDS011;70425;59.322;13.486;2023-08-21T03:32:12;16.30;;;5.50;;
80963;SDS011;70425;59.322;13.486;2023-08-21T03:35:01;25.37;;;5.83;;
80963;SDS011;70425;59.322;13.486;2023-08-21T03:37:49;16.63;;;5.60;;
80963;SDS011;70425;59.322;13.486;2023-08-21T03:40:39;17.70;;;5.47;;
80963;SDS011;70425;59.322;13.486;2023-08-21T03:43:28;19.47;;;5.67;;
80963;SDS011;70425;59.322;13.486;2023-08-21T03:46:17;15.10;;;5.60;;
80963;SDS011;70425;59.322;13.486;2023-08-21T03:49:05;13.97;;;5.80;;
80963;SDS011;70425;59.322;13.486;2023-08-21T04:06:29;15.40;;;5.23;;
80963;SDS011;70425;59.322;13.486;2023-08-21T04:20:09;12.67;;;4.77;;
80963;SDS011;70425;59.322;13.486;2023-08-21T04:22:59;12.00;;;4.47;;
80963;SDS011;70425;59.322;13.486;2023-08-21T04:25:53;10.50;;;4.33;;
80963;SDS011;70425;59.322;13.486;2023-08-21T04:28:49;12.67;;;4.10;;
80963;SDS011;70425;59.322;13.486;2023-08-21T04:31:38;10.33;;;4.10;;
80963;SDS011;70425;59.322;13.486;2023-08-21T04:34:26;9.20;;;3.70;;
80963;SDS011;70425;59.322;13.486;2023-08-21T04:37:15;13.63;;;3.77;;
80963;SDS011;70425;59.322;13.486;2023-08-21T04:40:04;11.77;;;3.20;;
80963;SDS011;70425;59.322;13.486;2023-08-21T04:42:54;13.33;;;3.30;;
80963;SDS011;70425;59.322;13.486;2023-08-21T04:48:40;13.40;;;3.40;;
80963;SDS011;70425;59.322;13.486;2023-08-21T04:51:28;10.17;;;3.10;;
80963;SDS011;70425;59.322;13.486;2023-08-21T04:54:18;12.00;;;2.90;;
80963;SDS011;70425;59.322;13.486;2023-08-21T04:57:07;18.10;;;3.70;;
80963;SDS011;70425;59.322;13.486;2023-08-21T05:00:00;11.03;;;3.00;;
80963;SDS011;70425;59.322;13.486;2023-08-21T05:13:37;12.80;;;3.10;;
80963;SDS011;70425;59.322;13.486;2023-08-21T05:16:26;12.90;;;3.60;;
80963;SDS011;70425;59.322;13.486;2023-08-21T05:37:03;7.57;;;2.60;;
80963;SDS011;70425;59.322;13.486;2023-08-21T05:39:53;9.80;;;2.80;;
80963;SDS011;70425;59.322;13.486;2023-08-21T05:55:52;8.27;;;2.87;;
80963;SDS011;70425;59.322;13.486;2023-08-21T06:01:20;11.73;;;3.13;;
80963;SDS011;70425;59.322;13.486;2023-08-21T06:04:08;12.13;;;2.90;;
80963;SDS011;70425;59.322;13.486;2023-08-21T06:22:04;12.93;;;2.60;;
80963;SDS011;70425;59.322;13.486;2023-08-21T06:38:52;9.53;;;2.30;;
80963;SDS011;70425;59.322;13.486;2023-08-21T06:45:38;10.97;;;3.03;;
80963;SDS011;70425;59.322;13.486;2023-08-21T06:48:27;10.80;;;2.50;;
80963;SDS011;70425;59.322;13.486;2023-08-21T06:51:17;10.87;;;3.33;;
80963;SDS011;70425;59.322;13.486;2023-08-21T06:54:05;8.20;;;2.60;;
80963;SDS011;70425;59.322;13.486;2023-08-21T06:56:54;16.03;;;2.90;;
80963;SDS011;70425;59.322;13.486;2023-08-21T06:59:42;9.30;;;2.60;;
80963;SDS011;70425;59.322;13.486;2023-08-21T07:02:32;12.10;;;2.60;;
80963;SDS011;70425;59.322;13.486;2023-08-21T07:05:21;7.20;;;2.53;;
80963;SDS011;70425;59.322;13.486;2023-08-21T07:08:10;9.07;;;2.50;;
80963;SDS011;70425;59.322;13.486;2023-08-21T07:10:59;12.57;;;2.40;;
80963;SDS011;70425;59.322;13.486;2023-08-21T07:13:46;12.47;;;2.60;;
80963;SDS011;70425;59.322;13.486;2023-08-21T07:16:53;9.87;;;2.60;;
80963;SDS011;70425;59.322;13.486;2023-08-21T07:19:43;8.13;;;2.63;;
80963;SDS011;70425;59.322;13.486;2023-08-21T07:37:45;8.50;;;2.30;;
80963;SDS011;70425;59.322;13.486;2023-08-21T07:43:57;8.30;;;2.10;;
80963;SDS011;70425;59.322;13.486;2023-08-21T08:00:16;13.17;;;2.20;;
80963;SDS011;70425;59.322;13.486;2023-08-21T08:03:07;8.97;;;2.20;;
80963;SDS011;70425;59.322;13.486;2023-08-21T08:05:49;6.87;;;2.37;;
80963;SDS011;70425;59.322;13.486;2023-08-21T08:11:47;13.20;;;2.60;;
80963;SDS011;70425;59.322;13.486;2023-08-21T08:14:36;14.83;;;2.40;;
80963;SDS011;70425;59.322;13.486;2023-08-21T08:17:26;6.80;;;2.00;;
80963;SDS011;70425;59.322;13.486;2023-08-21T08:34:32;7.83;;;2.43;;
80963;SDS011;70425;59.322;13.486;2023-08-21T08:40:07;7.53;;;2.40;;
80963;SDS011;70425;59.322;13.486;2023-08-21T08:45:53;9.00;;;2.50;;
80963;SDS011;70425;59.322;13.486;2023-08-21T08:48:46;14.67;;;2.70;;
80963;SDS011;70425;59.322;13.486;2023-08-21T08:51:35;12.70;;;2.83;;
80963;SDS011;70425;59.322;13.486;2023-08-21T08:54:26;9.10;;;2.20;;
80963;SDS011;70425;59.322;13.486;2023-08-21T08:57:17;9.27;;;2.30;;
80963;SDS011;70425;59.322;13.486;2023-08-21T09:00:13;13.30;;;2.47;;
80963;SDS011;70425;59.322;13.486;2023-08-21T09:03:03;7.80;;;2.20;;
80963;SDS011;70425;59.322;13.486;2023-08-21T09:05:55;9.97;;;2.73;;
80963;SDS011;70425;59.322;13.486;2023-08-21T09:13:20;12.73;;;2.37;;
80963;SDS011;70425;59.322;13.486;2023-08-21T09:19:58;10.73;;;2.10;;
80963;SDS011;70425;59.322;13.486;2023-08-21T09:25:36;13.90;;;2.87;;
80963;SDS011;70425;59.322;13.486;2023-08-21T09:28:27;9.00;;;2.43;;
80963;SDS011;70425;59.322;13.486;2023-08-21T09:44:59;12.23;;;2.40;;
80963;SDS011;70425;59.322;13.486;2023-08-21T09:47:50;11.57;;;2.30;;
80963;SDS011;70425;59.322;13.486;2023-08-21T09:50:34;14.70;;;2.30;;
80963;SDS011;70425;59.322;13.486;2023-08-21T09:53:25;9.10;;;2.10;;
80963;SDS011;70425;59.322;13.486;2023-08-21T09:56:14;8.97;;;2.00;;
80963;SDS011;70425;59.322;13.486;2023-08-21T09:59:03;11.47;;;2.17;;
80963;SDS011;70425;59.322;13.486;2023-08-21T10:01:53;10.00;;;2.10;;
80963;SDS011;70425;59.322;13.486;2023-08-21T10:07:26;7.73;;;2.00;;
80963;SDS011;70425;59.322;13.486;2023-08-21T10:10:16;5.70;;;1.83;;
80963;SDS011;70425;59.322;13.486;2023-08-21T10:13:05;9.40;;;2.13;;
80963;SDS011;70425;59.322;13.486;2023-08-21T10:15:55;8.17;;;1.83;;
80963;SDS011;70425;59.322;13.486;2023-08-21T10:18:45;11.70;;;2.27;;
80963;SDS011;70425;59.322;13.486;2023-08-21T10:21:36;14.37;;;2.17;;
80963;SDS011;70425;59.322;13.486;2023-08-21T10:24:28;7.33;;;2.13;;
80963;SDS011;70425;59.322;13.486;2023-08-21T10:27:29;12.70;;;2.30;;
80963;SDS011;70425;59.322;13.486;2023-08-21T10:30:22;7.23;;;1.80;;
80963;SDS011;70425;59.322;13.486;2023-08-21T10:33:13;11.53;;;2.60;;
80963;SDS011;70425;59.322;13.486;2023-08-21T10:36:01;6.57;;;1.90;;
80963;SDS011;70425;59.322;13.486;2023-08-21T10:39:00;8.87;;;2.30;;
80963;SDS011;70425;59.322;13.486;2023-08-21T10:42:05;11.13;;;2.03;;
80963;SDS011;70425;59.322;13.486;2023-08-21T10:45:12;6.33;;;1.77;;
80963;SDS011;70425;59.322;13.486;2023-08-21T10:51:25;10.00;;;2.00;;
80963;SDS011;70425;59.322;13.486;2023-08-21T10:54:17;7.07;;;1.80;;
80963;SDS011;70425;59.322;13.486;2023-08-21T10:57:02;8.27;;;1.60;;
80963;SDS011;70425;59.322;13.486;2023-08-21T10:59:52;6.07;;;1.80;;
80963;SDS011;70425;59.322;13.486;2023-08-21T11:02:44;7.60;;;2.20;;
80963;SDS011;70425;59.322;13.486;2023-08-21T11:08:44;8.57;;;2.27;;
80963;SDS011;70425;59.322;13.486;2023-08-21T11:11:35;10.67;;;1.90;;
80963;SDS011;70425;59.322;13.486;2023-08-21T11:14:26;13.10;;;2.20;;
80963;SDS011;70425;59.322;13.486;2023-08-21T11:20:08;6.40;;;1.70;;
80963;SDS011;70425;59.322;13.486;2023-08-21T11:22:58;5.93;;;1.70;;
80963;SDS011;70425;59.322;13.486;2023-08-21T11:25:48;7.73;;;1.63;;
80963;SDS011;70425;59.322;13.486;2023-08-21T11:31:21;6.87;;;1.60;;
80963;SDS011;70425;59.322;13.486;2023-08-21T11:34:10;7.33;;;2.20;;
80963;SDS011;70425;59.322;13.486;2023-08-21T11:37:03;7.20;;;1.93;;
80963;SDS011;70425;59.322;13.486;2023-08-21T11:39:52;5.77;;;1.70;;
80963;SDS011;70425;59.322;13.486;2023-08-21T11:42:43;8.07;;;1.80;;
80963;SDS011;70425;59.322;13.486;2023-08-21T11:45:33;8.77;;;2.00;;
80963;SDS011;70425;59.322;13.486;2023-08-21T11:48:23;4.13;;;1.60;;
80963;SDS011;70425;59.322;13.486;2023-08-21T11:51:13;6.07;;;1.53;;
80963;SDS011;70425;59.322;13.486;2023-08-21T11:54:32;4.97;;;1.50;;
80963;SDS011;70425;59.322;13.486;2023-08-21T11:57:21;7.47;;;1.80;;
80963;SDS011;70425;59.322;13.486;2023-08-21T12:00:17;5.73;;;1.83;;
80963;SDS011;70425;59.322;13.486;2023-08-21T12:03:10;5.23;;;1.70;;
80963;SDS011;70425;59.322;13.486;2023-08-21T12:05:59;9.20;;;1.80;;
80963;SDS011;70425;59.322;13.486;2023-08-21T12:08:53;8.37;;;1.70;;
80963;SDS011;70425;59.322;13.486;2023-08-21T12:11:35;3.53;;;1.17;;
80963;SDS011;70425;59.322;13.486;2023-08-21T12:14:28;9.40;;;1.50;;
80963;SDS011;70425;59.322;13.486;2023-08-21T12:17:17;5.40;;;1.27;;
80963;SDS011;70425;59.322;13.486;2023-08-21T12:20:09;5.37;;;1.40;;
80963;SDS011;70425;59.322;13.486;2023-08-21T12:25:46;9.07;;;1.60;;
80963;SDS011;70425;59.322;13.486;2023-08-21T12:28:37;6.57;;;1.67;;
80963;SDS011;70425;59.322;13.486;2023-08-21T12:31:29;10.30;;;1.80;;
80963;SDS011;70425;59.322;13.486;2023-08-21T12:34:19;3.50;;;1.30;;
80963;SDS011;70425;59.322;13.486;2023-08-21T12:37:11;3.40;;;1.17;;
80963;SDS011;70425;59.322;13.486;2023-08-21T12:40:01;4.13;;;1.30;;
80963;SDS011;70425;59.322;13.486;2023-08-21T12:42:52;7.10;;;1.67;;
80963;SDS011;70425;59.322;13.486;2023-08-21T12:45:42;6.70;;;1.20;;
80963;SDS011;70425;59.322;13.486;2023-08-21T12:48:32;4.43;;;1.27;;
80963;SDS011;70425;59.322;13.486;2023-08-21T12:54:16;2.23;;;1.30;;
80963;SDS011;70425;59.322;13.486;2023-08-21T12:57:08;5.90;;;1.30;;
80963;SDS011;70425;59.322;13.486;2023-08-21T12:59:57;5.00;;;1.30;;
80963;SDS011;70425;59.322;13.486;2023-08-21T13:02:47;3.53;;;1.13;;
80963;SDS011;70425;59.322;13.486;2023-08-21T13:05:38;4.07;;;1.57;;
80963;SDS011;70425;59.322;13.486;2023-08-21T13:08:26;1.47;;;1.20;;
80963;SDS011;70425;59.322;13.486;2023-08-21T13:11:16;5.03;;;1.20;;
80963;SDS011;70425;59.322;13.486;2023-08-21T13:14:08;5.37;;;1.40;;
80963;SDS011;70425;59.322;13.486;2023-08-21T13:34:21;6.27;;;1.33;;
80963;SDS011;70425;59.322;13.486;2023-08-21T13:37:15;3.27;;;1.10;;
80963;SDS011;70425;59.322;13.486;2023-08-21T13:42:08;4.87;;;1.30;;
80963;SDS011;70425;59.322;13.486;2023-08-21T13:45:00;7.40;;;1.53;;
80963;SDS011;70425;59.322;13.486;2023-08-21T13:47:56;2.40;;;1.10;;
80963;SDS011;70425;59.322;13.486;2023-08-21T13:50:53;5.60;;;1.37;;
80963;SDS011;70425;59.322;13.486;2023-08-21T13:53:41;5.17;;;1.30;;
80963;SDS011;70425;59.322;13.486;2023-08-21T13:56:31;2.57;;;1.20;;
80963;SDS011;70425;59.322;13.486;2023-08-21T13:59:20;4.50;;;1.17;;
80963;SDS011;70425;59.322;13.486;2023-08-21T14:02:05;4.33;;;1.20;;
80963;SDS011;70425;59.322;13.486;2023-08-21T14:14:17;4.50;;;1.37;;
80963;SDS011;70425;59.322;13.486;2023-08-21T14:17:07;3.97;;;1.30;;
80963;SDS011;70425;59.322;13.486;2023-08-21T14:19:56;5.37;;;1.13;;
80963;SDS011;70425;59.322;13.486;2023-08-21T14:22:46;3.37;;;1.40;;
80963;SDS011;70425;59.322;13.486;2023-08-21T14:25:37;3.10;;;1.13;;
80963;SDS011;70425;59.322;13.486;2023-08-21T14:28:27;6.10;;;1.27;;
80963;SDS011;70425;59.322;13.486;2023-08-21T14:31:19;1.93;;;1.10;;
80963;SDS011;70425;59.322;13.486;2023-08-21T14:34:31;3.23;;;1.20;;
80963;SDS011;70425;59.322;13.486;2023-08-21T14:37:21;3.17;;;1.20;;
80963;SDS011;70425;59.322;13.486;2023-08-21T14:40:15;2.20;;;1.27;;
80963;SDS011;70425;59.322;13.486;2023-08-21T14:43:07;2.43;;;1.10;;
80963;SDS011;70425;59.322;13.486;2023-08-21T14:46:01;5.57;;;1.50;;
80963;SDS011;70425;59.322;13.486;2023-08-21T14:48:57;3.37;;;1.37;;
80963;SDS011;70425;59.322;13.486;2023-08-21T14:51:48;4.47;;;1.20;;
80963;SDS011;70425;59.322;13.486;2023-08-21T14:57:53;2.90;;;1.20;;
80963;SDS011;70425;59.322;13.486;2023-08-21T15:00:44;4.90;;;1.10;;
80963;SDS011;70425;59.322;13.486;2023-08-21T15:03:36;2.77;;;1.10;;
80963;SDS011;70425;59.322;13.486;2023-08-21T15:06:27;6.77;;;1.53;;
80963;SDS011;70425;59.322;13.486;2023-08-21T15:09:18;4.93;;;1.27;;
80963;SDS011;70425;59.322;13.486;2023-08-21T15:12:08;3.97;;;1.30;;
80963;SDS011;70425;59.322;13.486;2023-08-21T15:28:22;3.77;;;1.27;;
80963;SDS011;70425;59.322;13.486;2023-08-21T15:31:13;3.00;;;1.33;;
80963;SDS011;70425;59.322;13.486;2023-08-21T15:34:02;2.20;;;1.37;;
80963;SDS011;70425;59.322;13.486;2023-08-21T15:36:53;2.57;;;1.20;;
80963;SDS011;70425;59.322;13.486;2023-08-21T15:40:00;5.00;;;1.20;;
80963;SDS011;70425;59.322;13.486;2023-08-21T15:42:49;3.90;;;1.50;;
80963;SDS011;70425;59.322;13.486;2023-08-21T15:48:31;3.03;;;1.30;;
80963;SDS011;70425;59.322;13.486;2023-08-21T15:51:23;3.97;;;1.33;;
80963;SDS011;70425;59.322;13.486;2023-08-21T15:54:17;2.93;;;1.27;;
80963;SDS011;70425;59.322;13.486;2023-08-21T15:57:07;2.60;;;1.30;;
80963;SDS011;70425;59.322;13.486;2023-08-21T15:59:59;1.60;;;1.13;;
80963;SDS011;70425;59.322;13.486;2023-08-21T16:02:49;4.13;;;1.60;;
80963;SDS011;70425;59.322;13.486;2023-08-21T16:08:25;5.17;;;1.43;;
80963;SDS011;70425;59.322;13.486;2023-08-21T16:14:17;4.97;;;1.50;;
80963;SDS011;70425;59.322;13.486;2023-08-21T16:17:07;8.50;;;1.83;;
80963;SDS011;70425;59.322;13.486;2023-08-21T16:30:37;6.03;;;1.60;;
80963;SDS011;70425;59.322;13.486;2023-08-21T16:37:55;2.47;;;1.47;;
80963;SDS011;70425;59.322;13.486;2023-08-21T16:40:44;8.13;;;1.80;;
80963;SDS011;70425;59.322;13.486;2023-08-21T16:43:36;6.90;;;2.13;;
80963;SDS011;70425;59.322;13.486;2023-08-21T16:46:24;5.70;;;1.70;;
80963;SDS011;70425;59.322;13.486;2023-08-21T16:49:14;7.70;;;1.93;;
80963;SDS011;70425;59.322;13.486;2023-08-21T16:52:05;6.27;;;1.60;;
80963;SDS011;70425;59.322;13.486;2023-08-21T16:54:54;6.07;;;1.67;;
80963;SDS011;70425;59.322;13.486;2023-08-21T16:57:43;6.67;;;1.80;;
80963;SDS011;70425;59.322;13.486;2023-08-21T17:00:33;8.00;;;1.77;;
80963;SDS011;70425;59.322;13.486;2023-08-21T17:03:23;6.70;;;1.80;;
80963;SDS011;70425;59.322;13.486;2023-08-21T17:06:12;6.90;;;2.37;;
80963;SDS011;70425;59.322;13.486;2023-08-21T17:09:01;6.10;;;3.23;;
80963;SDS011;70425;59.322;13.486;2023-08-21T17:14:30;5.80;;;1.70;;
80963;SDS011;70425;59.322;13.486;2023-08-21T17:17:19;6.60;;;1.87;;
80963;SDS011;70425;59.322;13.486;2023-08-21T17:20:08;5.87;;;2.00;;
80963;SDS011;70425;59.322;13.486;2023-08-21T17:22:58;8.60;;;1.90;;
80963;SDS011;70425;59.322;13.486;2023-08-21T17:25:47;8.70;;;1.80;;
80963;SDS011;70425;59.322;13.486;2023-08-21T17:28:37;8.23;;;2.00;;
80963;SDS011;70425;59.322;13.486;2023-08-21T17:31:25;10.77;;;2.23;;
80963;SDS011;70425;59.322;13.486;2023-08-21T17:34:16;8.37;;;2.07;;
80963;SDS011;70425;59.322;13.486;2023-08-21T17:37:04;7.93;;;2.43;;
80963;SDS011;70425;59.322;13.486;2023-08-21T17:39:53;8.80;;;2.50;;
80963;SDS011;70425;59.322;13.486;2023-08-21T17:42:49;11.07;;;2.57;;
80963;SDS011;70425;59.322;13.486;2023-08-21T17:45:38;9.43;;;2.50;;
80963;SDS011;70425;59.322;13.486;2023-08-21T17:48:27;9.93;;;2.60;;
80963;SDS011;70425;59.322;13.486;2023-08-21T17:51:15;15.20;;;2.67;;
80963;SDS011;70425;59.322;13.486;2023-08-21T17:54:05;11.63;;;2.43;;
80963;SDS011;70425;59.322;13.486;2023-08-21T17:56:56;10.07;;;2.30;;
80963;SDS011;70425;59.322;13.486;2023-08-21T18:02:29;8.30;;;2.40;;
80963;SDS011;70425;59.322;13.486;2023-08-21T18:05:21;11.77;;;2.30;;
80963;SDS011;70425;59.322;13.486;2023-08-21T18:08:09;15.30;;;2.43;;
80963;SDS011;70425;59.322;13.486;2023-08-21T18:10:59;7.47;;;2.50;;
80963;SDS011;70425;59.322;13.486;2023-08-21T18:13:49;10.63;;;2.73;;
80963;SDS011;70425;59.322;13.486;2023-08-21T18:16:38;11.70;;;2.50;;
80963;SDS011;70425;59.322;13.486;2023-08-21T18:19:59;16.57;;;2.70;;
80963;SDS011;70425;59.322;13.486;2023-08-21T18:22:51;13.03;;;3.33;;
80963;SDS011;70425;59.322;13.486;2023-08-21T18:25:39;10.37;;;2.50;;
80963;SDS011;70425;59.322;13.486;2023-08-21T18:28:29;12.37;;;2.93;;
80963;SDS011;70425;59.322;13.486;2023-08-21T18:31:18;10.47;;;2.50;;
80963;SDS011;70425;59.322;13.486;2023-08-21T18:34:07;9.60;;;2.70;;
80963;SDS011;70425;59.322;13.486;2023-08-21T18:36:58;10.27;;;2.57;;
80963;SDS011;70425;59.322;13.486;2023-08-21T18:39:46;15.93;;;3.10;;
80963;SDS011;70425;59.322;13.486;2023-08-21T18:45:19;13.40;;;3.10;;
80963;SDS011;70425;59.322;13.486;2023-08-21T18:48:08;8.63;;;2.70;;
80963;SDS011;70425;59.322;13.486;2023-08-21T18:50:57;14.10;;;2.93;;
80963;SDS011;70425;59.322;13.486;2023-08-21T18:53:45;16.67;;;3.63;;
80963;SDS011;70425;59.322;13.486;2023-08-21T18:56:34;14.40;;;3.07;;
80963;SDS011;70425;59.322;13.486;2023-08-21T19:09:42;12.13;;;3.27;;
80963;SDS011;70425;59.322;13.486;2023-08-21T19:15:09;15.63;;;3.63;;
80963;SDS011;70425;59.322;13.486;2023-08-21T19:32:07;14.33;;;3.03;;
80963;SDS011;70425;59.322;13.486;2023-08-21T19:35:01;12.17;;;2.90;;
80963;SDS011;70425;59.322;13.486;2023-08-21T19:37:52;12.97;;;3.00;;
80963;SDS011;70425;59.322;13.486;2023-08-21T19:40:40;12.73;;;3.13;;
80963;SDS011;70425;59.322;13.486;2023-08-21T19:43:31;11.97;;;3.80;;
80963;SDS011;70425;59.322;13.486;2023-08-21T19:46:19;11.50;;;3.50;;
80963;SDS011;70425;59.322;13.486;2023-08-21T19:49:08;12.53;;;3.33;;
80963;SDS011;70425;59.322;13.486;2023-08-21T19:51:58;18.47;;;3.93;;
80963;SDS011;70425;59.322;13.486;2023-08-21T19:57:27;16.33;;;3.90;;
80963;SDS011;70425;59.322;13.486;2023-08-21T20:00:16;20.50;;;3.90;;
80963;SDS011;70425;59.322;13.486;2023-08-21T20:08:06;16.20;;;3.60;;
80963;SDS011;70425;59.322;13.486;2023-08-21T20:10:55;16.80;;;4.00;;
80963;SDS011;70425;59.322;13.486;2023-08-21T20:13:44;20.77;;;4.40;;
80963;SDS011;70425;59.322;13.486;2023-08-21T20:16:33;13.33;;;3.63;;
80963;SDS011;70425;59.322;13.486;2023-08-21T20:19:22;13.10;;;3.83;;
80963;SDS011;70425;59.322;13.486;2023-08-21T20:22:11;14.80;;;3.70;;
80963;SDS011;70425;59.322;13.486;2023-08-21T20:25:00;16.50;;;3.40;;
80963;SDS011;70425;59.322;13.486;2023-08-21T20:27:49;20.80;;;3.80;;
80963;SDS011;70425;59.322;13.486;2023-08-21T20:30:38;14.57;;;4.00;;
80963;SDS011;70425;59.322;13.486;2023-08-21T20:36:19;19.27;;;4.40;;
80963;SDS011;70425;59.322;13.486;2023-08-21T20:39:08;19.17;;;3.83;;
80963;SDS011;70425;59.322;13.486;2023-08-21T20:41:57;18.23;;;4.47;;
80963;SDS011;70425;59.322;13.486;2023-08-21T20:45:42;12.70;;;3.90;;
80963;SDS011;70425;59.322;13.486;2023-08-21T20:48:32;19.83;;;4.13;;
80963;SDS011;70425;59.322;13.486;2023-08-21T20:51:21;16.40;;;3.77;;
80963;SDS011;70425;59.322;13.486;2023-08-21T20:57:03;15.87;;;4.17;;
80963;SDS011;70425;59.322;13.486;2023-08-21T20:59:53;23.10;;;4.07;;
80963;SDS011;70425;59.322;13.486;2023-08-21T21:02:41;17.20;;;4.63;;
80963;SDS011;70425;59.322;13.486;2023-08-21T21:05:30;21.07;;;4.27;;
80963;SDS011;70425;59.322;13.486;2023-08-21T21:08:20;16.87;;;3.73;;
80963;SDS011;70425;59.322;13.486;2023-08-21T21:11:09;24.07;;;4.30;;
80963;SDS011;70425;59.322;13.486;2023-08-21T21:13:58;17.47;;;4.00;;
80963;SDS011;70425;59.322;13.486;2023-08-21T21:18:19;20.03;;;4.00;;
80963;SDS011;70425;59.322;13.486;2023-08-21T21:21:08;18.83;;;4.20;;
80963;SDS011;70425;59.322;13.486;2023-08-21T21:23:57;15.63;;;3.90;;
80963;SDS011;70425;59.322;13.486;2023-08-21T21:26:46;15.43;;;4.10;;
80963;SDS011;70425;59.322;13.486;2023-08-21T21:29:38;33.37;;;4.53;;
80963;SDS011;70425;59.322;13.486;2023-08-21T21:32:27;20.77;;;4.23;;
80963;SDS011;70425;59.322;13.486;2023-08-21T21:35:16;22.77;;;4.40;;
80963;SDS011;70425;59.322;13.486;2023-08-21T21:38:06;14.87;;;4.27;;
80963;SDS011;70425;59.322;13.486;2023-08-21T21:40:54;18.53;;;3.73;;
80963;SDS011;70425;59.322;13.486;2023-08-21T21:43:44;20.17;;;4.63;;
80963;SDS011;70425;59.322;13.486;2023-08-21T21:46:33;21.83;;;4.50;;
80963;SDS011;70425;59.322;13.486;2023-08-21T21:49:22;25.63;;;4.03;;
80963;SDS011;70425;59.322;13.486;2023-08-21T21:52:11;17.03;;;4.10;;
80963;SDS011;70425;59.322;13.486;2023-08-21T21:54:59;15.70;;;4.07;;
80963;SDS011;70425;59.322;13.486;2023-08-21T22:00:29;26.07;;;4.73;;
80963;SDS011;70425;59.322;13.486;2023-08-21T22:03:17;15.33;;;3.80;;
80963;SDS011;70425;59.322;13.486;2023-08-21T22:06:06;13.77;;;4.13;;
80963;SDS011;70425;59.322;13.486;2023-08-21T22:08:55;24.53;;;4.07;;
80963;SDS011;70425;59.322;13.486;2023-08-21T22:11:44;19.57;;;4.67;;
80963;SDS011;70425;59.322;13.486;2023-08-21T22:14:32;25.67;;;5.27;;
80963;SDS011;70425;59.322;13.486;2023-08-21T22:17:20;41.60;;;11.30;;
80963;SDS011;70425;59.322;13.486;2023-08-21T22:20:03;28.17;;;9.50;;
80963;SDS011;70425;59.322;13.486;2023-08-21T22:22:53;25.20;;;7.57;;
80963;SDS011;70425;59.322;13.486;2023-08-21T22:25:43;19.03;;;4.40;;
80963;SDS011;70425;59.322;13.486;2023-08-21T22:28:32;19.30;;;4.33;;
80963;SDS011;70425;59.322;13.486;2023-08-21T22:31:21;34.77;;;4.97;;
80963;SDS011;70425;59.322;13.486;2023-08-21T22:34:09;23.97;;;4.40;;
80963;SDS011;70425;59.322;13.486;2023-08-21T22:36:57;23.27;;;4.63;;
80963;SDS011;70425;59.322;13.486;2023-08-21T22:39:46;24.53;;;4.30;;
80963;SDS011;70425;59.322;13.486;2023-08-21T22:42:35;20.23;;;4.47;;
80963;SDS011;70425;59.322;13.486;2023-08-21T23:01:12;22.77;;;6.23;;
80963;SDS011;70425;59.322;13.486;2023-08-21T23:04:02;27.33;;;7.23;;
80963;SDS011;70425;59.322;13.486;2023-08-21T23:06:51;33.37;;;9.40;;
80963;SDS011;70425;59.322;13.486;2023-08-21T23:09:40;26.67;;;9.57;;
80963;SDS011;70425;59.322;13.486;2023-08-21T23:32:52;41.83;;;12.97;;
80963;SDS011;70425;59.322;13.486;2023-08-21T23:35:41;51.27;;;15.70;;
80963;SDS011;70425;59.322;13.486;2023-08-21T23:38:30;39.07;;;15.67;;
80963;SDS011;70425;59.322;13.486;2023-08-21T23:45:33;41.77;;;15.53;;
80963;SDS011;70425;59.322;13.486;2023-08-21T23:48:30;34.90;;;12.80;;
80963;SDS011;70425;59.322;13.486;2023-08-21T23:51:30;39.77;;;12.43;;
80963;SDS011;70425;59.322;13.486;2023-08-21T23:54:55;31.33;;;8.37;;
80963;SDS011;70425;59.322;13.486;2023-08-21T23:57:50;33.80;;;8.10;;
